Latest Weather Observations for Strathalbyn

IDS60801

Issued at 11:01 pm CST Monday 26 June 2017 (issued every 30 minutes, with the page automatically refreshed every 10 minutes)

About weather observations | Map of weather stations | Latest weather observations for SA | Other Formats
Station Details ID: 024580 Name: STRATHALBYN RACECOURSE Lat: -35.28 Lon: 138.89 Height: 58.0 m
Data from the previous 72 hours. | See also: Recent months at Strathalbyn
Date/Time
CST
Temp
°C
App
Temp
°C
Dew
Point
°C
Rel
Hum
%
Delta-T
°C
Wind Press
QNH
hPa
Press
MSL
hPa
Rain since
9am
mm
Dir  Spd
km/h
Gust
km/h
Spd
kts
Gust
kts
26/11:00pm 8.0 5.1 6.5 90 0.7 NW 11 13 6 7 1025.3 1025.3 0.0
26/10:30pm 7.7 5.6 6.0 89 0.8 NNW 6 7 3 4 1025.5 1025.5 0.0
26/10:00pm 8.2 5.6 6.3 88 0.9 NW 9 11 5 6 1025.4 1025.4 0.0
26/09:30pm 8.5 5.6 6.5 87 0.9 NNW 11 11 6 6 1025.5 1025.5 0.0
26/09:00pm 8.7 5.8 6.3 85 1.1 NNW 11 11 6 6 1025.6 1025.6 0.0
26/08:30pm 9.4 7.4 7.2 86 1.0 NNW 7 9 4 5 1025.7 1025.7 0.0
26/08:00pm 9.4 6.7 7.3 87 1.0 NW 11 13 6 7 1025.5 1025.5 0.0
26/07:30pm 9.3 6.4 6.7 84 1.2 NW 11 13 6 7 1025.1 1025.1 0.0
26/07:00pm 9.7 9.0 7.1 84 1.2 CALM 0 6 0 3 1025.0 1025.0 0.0
26/06:30pm 10.5 10.0 7.7 83 1.3 CALM 0 0 0 0 1024.7 1024.7 0.0
26/06:00pm 10.6 9.0 7.8 83 1.3 NW 6 7 3 4 1024.9 1024.9 0.0
26/05:30pm 10.9 9.6 7.6 80 1.6 SE 4 9 2 5 1024.3 1024.3 0.0
26/05:00pm 11.7 10.1 7.8 77 1.9 SE 6 7 3 4 1024.2 1024.2 0.0
26/04:30pm 12.4 10.7 8.3 76 2.0 SE 7 9 4 5 1024.2 1024.2 0.0
26/04:00pm 12.7 10.6 8.4 75 2.1 SSE 9 11 5 6 1024.3 1024.3 0.0
26/03:30pm 13.2 11.2 8.7 74 2.2 SSE 9 11 5 6 1024.2 1024.2 0.0
26/03:00pm 13.5 11.4 8.4 71 2.5 SE 9 13 5 7 1024.1 1024.1 0.0
26/02:30pm 13.7 11.7 8.5 71 2.6 SE 9 13 5 7 1024.2 1024.2 0.0
26/02:00pm 13.8 11.5 9.0 73 2.4 SSE 11 15 6 8 1024.2 1024.2 0.0
26/01:30pm 12.8 9.8 9.3 79 1.8 SSW 15 19 8 10 1024.3 1024.3 0.0
26/01:00pm 13.4 9.1 9.3 76 2.1 SSW 22 28 12 15 1024.3 1024.3 0.0
26/12:30pm 14.3 11.3 7.6 64 3.3 S 13 17 7 9 1024.4 1024.4 0.0
26/12:00pm 14.6 12.9 7.4 62 3.5 WSW 6 11 3 6 1024.7 1024.7 0.0
26/11:30am 14.4 12.2 7.9 65 3.2 WNW 9 17 5 9 1025.0 1025.0 0.0
26/11:00am 13.7 13.2 9.4 75 2.2 SSW 2 11 1 6 1025.4 1025.4 0.0
26/10:30am 13.0 11.5 9.1 77 2.0 SW 7 11 4 6 1025.7 1025.7 0.0
26/10:00am 12.1 10.7 9.5 84 1.3 SW 7 11 4 6 1025.7 1025.7 0.0
26/09:30am 11.1 8.8 9.0 87 1.0 SW 11 15 6 8 1025.4 1025.4 0.0
26/09:00am 10.6 8.2 8.5 87 1.0 SSW 11 13 6 7 1025.0 1025.0 0.2
26/08:30am 10.8 9.2 8.6 86 1.1 N 7 9 4 5 1024.6 1024.6 0.2
26/08:00am 9.4 7.6 8.0 91 0.7 N 7 9 4 5 1024.1 1024.1 0.2
26/07:30am 9.3 7.6 7.7 90 0.8 N 6 7 3 4 1023.9 1023.9 0.2
26/07:00am 9.4 6.8 7.8 90 0.8 NNW 11 13 6 7 1023.5 1023.5 0.2
26/06:30am 9.6 7.3 7.5 87 1.0 NNW 9 11 5 6 1023.3 1023.3 0.2
26/06:00am 10.4 8.4 8.7 89 0.8 WNW 9 13 5 7 1023.1 1023.1 0.2
26/05:30am 10.3 8.7 8.6 89 0.8 WNW 7 11 4 6 1022.9 1022.9 0.2
26/05:00am 10.3 7.9 8.6 89 0.8 W 11 15 6 8 1022.8 1022.8 0.2
26/04:30am 10.5 8.0 8.1 85 1.2 WSW 11 20 6 11 1022.4 1022.4 0.0
26/04:00am 9.8 7.4 7.2 84 1.2 WNW 9 13 5 7 1022.3 1022.3 0.0
26/03:30am 9.8 7.1 7.4 85 1.1 WNW 11 15 6 8 1022.4 1022.4 0.0
26/03:00am 9.6 6.5 7.2 85 1.1 W 13 15 7 8 1022.4 1022.4 0.0
26/02:30am 8.5 6.0 6.5 87 0.9 W 9 11 5 6 1022.2 1022.2 0.0
26/02:00am 8.4 5.0 6.0 85 1.1 NW 13 15 7 8 1022.1 1022.1 0.0
26/01:30am 9.6 6.4 7.0 84 1.2 W 13 17 7 9 1022.0 1022.0 0.0
26/01:00am 9.9 6.5 7.5 85 1.1 W 15 19 8 10 1021.6 1021.6 0.0
26/12:30am 9.5 6.7 6.9 84 1.2 WNW 11 13 6 7 1021.8 1021.8 0.0
26/12:00am 9.6 6.8 6.9 83 1.3 W 11 13 6 7 1021.7 1021.7 0.0
 
Date/Time
CST
Temp
°C
App
Temp
°C
Dew
Point
°C
Rel
Hum
%
Delta-T
°C
Wind Press
QNH
hPa
Press
MSL
hPa
Rain since
9am
mm
Dir  Spd
km/h
Gust
km/h
Spd
kts
Gust
kts
25/11:30pm 10.2 7.6 7.6 84 1.2 WNW 11 13 6 7 1021.8 1021.8 0.0
25/11:00pm 10.2 7.6 7.8 85 1.2 W 11 15 6 8 1022.0 1022.0 0.0
25/10:30pm 8.8 5.8 6.1 83 1.2 WNW 11 15 6 8 1021.7 1021.7 0.0
25/10:00pm 9.5 6.4 7.3 86 1.0 WNW 13 19 7 10 1021.6 1021.6 0.0
25/09:30pm 9.8 6.2 6.7 81 1.4 WNW 15 17 8 9 1021.6 1021.6 0.0
25/09:00pm 10.3 7.2 7.2 81 1.5 WNW 13 17 7 9 1021.2 1021.2 0.0
25/08:30pm 10.7 7.2 7.0 78 1.8 W 15 17 8 9 1021.1 1021.1 0.0
25/08:00pm 11.1 7.5 6.8 75 2.0 W 15 20 8 11 1020.9 1020.9 0.0
25/07:30pm 11.3 7.5 7.6 78 1.8 W 17 24 9 13 1020.7 1020.7 0.0
25/07:00pm 11.0 7.4 6.9 76 2.0 W 15 20 8 11 1020.7 1020.7 0.0
25/06:30pm 9.3 7.1 6.2 81 1.4 NW 7 9 4 5 1020.4 1020.4 0.0
25/06:00pm 9.9 7.4 6.4 79 1.6 NW 9 11 5 6 1020.1 1020.1 0.0
25/05:30pm 10.8 7.9 6.6 75 2.0 WNW 11 13 6 7 1020.0 1020.0 0.0
25/05:00pm 11.9 8.5 6.0 67 2.8 WNW 13 19 7 10 1020.0 1020.0 0.0
25/04:30pm 13.4 8.3 5.8 60 3.6 W 22 28 12 15 1019.7 1019.8 0.0
25/04:00pm 14.1 9.7 6.5 60 3.7 W 19 26 10 14 1019.6 1019.7 0.0
25/03:30pm 13.5 9.0 7.1 65 3.1 W 20 26 11 14 1019.4 1019.5 0.0
25/03:00pm 14.1 8.8 6.7 61 3.6 W 24 28 13 15 1019.0 1019.1 0.0
25/02:30pm 14.4 9.8 6.7 60 3.7 WSW 20 28 11 15 1018.7 1018.8 0.0
25/02:00pm 14.1 9.5 6.7 61 3.6 WSW 20 37 11 20 1018.8 1018.9 0.0
25/01:30pm 14.0 10.2 7.5 65 3.2 W 17 28 9 15 1018.9 1019.0 0.0
25/01:00pm 14.1 9.9 7.6 65 3.2 WSW 19 26 10 14 1019.2 1019.3 0.0
25/12:30pm 13.8 10.1 8.0 68 2.9 WSW 17 24 9 13 1019.5 1019.6 0.0
25/12:00pm 14.3 10.7 6.9 61 3.6 WSW 15 24 8 13 1019.6 1019.7 0.0
25/11:30am 14.2 10.6 6.6 60 3.7 W 15 20 8 11 1019.7 1019.8 0.0
25/11:00am 14.3 10.8 7.1 62 3.5 W 15 20 8 11 1019.8 1019.9 0.0
25/10:30am 13.6 10.7 8.0 69 2.8 W 13 17 7 9 1020.0 1020.0 0.0
25/10:00am 13.4 10.6 8.5 72 2.5 W 13 20 7 11 1019.8 1019.9 0.0
25/09:30am 13.0 10.5 8.3 73 2.3 W 11 15 6 8 1019.6 1019.7 0.0
25/09:00am 12.0 10.0 8.5 79 1.7 W 9 13 5 7 1019.4 1019.5 0.0
25/08:30am 10.1 8.5 7.9 86 1.1 N 6 9 3 5 1019.2 1019.3 0.0
25/08:00am 8.5 6.8 6.0 84 1.1 NW 4 7 2 4 1018.9 1019.0 0.0
25/07:30am 9.7 7.4 7.6 87 1.0 WNW 9 13 5 7 1018.9 1019.0 0.0
25/07:00am 9.2 7.1 6.8 85 1.1 WNW 7 9 4 5 1018.5 1018.6 0.0
25/06:30am 10.6 8.2 8.5 87 1.0 W 11 17 6 9 1018.3 1018.4 0.0
25/06:00am 9.8 7.3 8.2 90 0.8 NW 11 15 6 8 1017.8 1017.9 0.0
25/05:30am 10.0 7.5 8.4 90 0.8 NNW 11 15 6 8 1017.7 1017.8 0.0
25/05:00am 8.5 6.1 7.0 90 0.7 NNW 9 13 5 7 1017.7 1017.8 0.0
25/04:30am 9.4 6.9 8.2 92 0.6 WNW 11 13 6 7 1017.7 1017.8 0.0
25/04:00am 8.7 6.8 7.5 92 0.6 W 7 13 4 7 1017.7 1017.8 0.0
25/03:30am 9.4 6.7 8.8 96 0.3 WNW 13 17 7 9 1017.7 1017.8 0.0
25/03:00am 7.9 4.7 6.7 92 0.6 NW 13 15 7 8 1018.0 1018.1 0.0
25/02:30am 7.1 4.4 5.7 91 0.6 N 9 11 5 6 1018.1 1018.2 0.0
25/02:00am 7.6 4.7 6.4 92 0.5 N 11 13 6 7 1018.3 1018.4 0.0
25/01:30am 7.9 5.8 6.8 93 0.5 N 7 9 4 5 1018.3 1018.4 0.0
25/01:00am 8.0 4.9 7.4 96 0.3 NNW 13 15 7 8 1018.4 1018.5 0.0
25/12:30am 8.0 4.5 7.1 94 0.4 NNW 15 17 8 9 1018.4 1018.5 0.0
25/12:00am 8.1 5.6 6.7 91 0.6 NW 9 11 5 6 1018.5 1018.6 0.0
 
Date/Time
CST
Temp
°C
App
Temp
°C
Dew
Point
°C
Rel
Hum
%
Delta-T
°C
Wind Press
QNH
hPa
Press
MSL
hPa
Rain since
9am
mm
Dir  Spd
km/h
Gust
km/h
Spd
kts
Gust
kts
24/11:30pm 8.5 5.4 7.3 92 0.6 NNW 13 15 7 8 1018.7 1018.8 0.0
24/11:00pm 8.8 6.5 7.3 90 0.7 NNW 9 11 5 6 1018.6 1018.7 0.0
24/10:30pm 9.5 7.3 7.8 89 0.8 NNW 9 11 5 6 1018.6 1018.7 0.0
24/10:00pm 10.2 7.8 8.5 89 0.8 NW 11 13 6 7 1018.8 1018.9 0.0
24/09:30pm 10.2 8.4 8.1 87 1.0 NW 7 7 4 4 1018.8 1018.9 0.0
24/09:00pm 10.2 8.6 8.1 87 1.0 NW 6 7 3 4 1019.0 1019.1 0.0
24/08:30pm 10.4 8.3 8.3 87 1.0 WNW 9 11 5 6 1018.9 1019.0 0.0
24/08:00pm 10.7 9.0 8.5 86 1.1 WNW 7 11 4 6 1018.7 1018.8 0.0
24/07:30pm 10.1 8.9 8.0 87 1.0 NW 4 7 2 4 1018.7 1018.8 0.0
24/07:00pm 10.6 9.0 8.2 85 1.2 W 6 7 3 4 1018.6 1018.7 0.0
24/06:30pm 11.1 9.4 8.5 84 1.3 SW 7 11 4 6 1018.4 1018.5 0.0
24/06:00pm 11.0 9.2 7.9 81 1.5 SW 7 9 4 5 1018.2 1018.3 0.0
24/05:30pm 11.7 9.9 8.0 78 1.8 SW 7 9 4 5 1018.1 1018.2 0.0
24/05:00pm 12.6 10.6 8.7 77 2.0 SSW 9 11 5 6 1018.0 1018.1 0.0
24/04:30pm 14.1 11.4 9.1 72 2.5 S 13 17 7 9 1017.8 1017.9 0.0
24/04:00pm 15.3 12.6 9.0 66 3.2 SSW 13 15 7 8 1017.7 1017.8 0.0
24/03:30pm 15.4 13.2 9.3 67 3.1 S 11 13 6 7 1017.6 1017.7 0.0
24/03:00pm 16.4 13.2 8.6 60 4.0 S 15 22 8 12 1017.5 1017.6 0.0
24/02:30pm 16.1 14.8 7.8 58 4.2 S 4 9 2 5 1017.5 1017.6 0.0
24/02:00pm 15.7 13.5 8.0 60 3.9 SSE 9 13 5 7 1017.7 1017.8 0.0
24/01:30pm 16.1 14.3 7.8 58 4.2 ESE 7 9 4 5 1017.8 1017.9 0.0
24/01:00pm 16.0 14.8 8.2 60 4.0 S 4 9 2 5 1018.3 1018.4 0.0
24/12:30pm 15.4 14.3 8.4 63 3.5 SE 4 7 2 4 1018.7 1018.8 0.0
24/12:00pm 15.4 14.1 9.1 66 3.2 E 6 9 3 5 1019.1 1019.2 0.0
24/11:30am 15.8 14.6 9.5 66 3.3 E 6 11 3 6 1019.6 1019.7 0.0
24/11:00am 15.7 15.4 10.0 69 3.0 ENE 2 7 1 4 1020.0 1020.0 0.0
24/10:30am 14.7 13.3 9.5 71 2.7 NE 7 11 4 6 1020.3 1020.3 0.0
24/10:00am 14.2 13.0 9.4 73 2.5 ENE 6 9 3 5 1020.3 1020.3 0.0
24/09:30am 13.7 13.6 10.9 83 1.5 N 2 7 1 4 1020.3 1020.3 0.0
24/09:00am 11.3 10.2 9.9 91 0.7 NW 6 7 3 4 1020.2 1020.2 0.0
24/08:30am 9.4 7.0 8.8 96 0.3 NW 11 15 6 8 1020.1 1020.1 0.0
24/08:00am 7.6 4.8 7.0 96 0.3 NNW 11 13 6 7 1019.7 1019.8 0.0
24/07:30am 6.9 4.8 5.7 92 0.5 N 6 7 3 4 1019.6 1019.7 0.0
24/07:00am 7.7 5.6 6.5 92 0.6 N 7 9 4 5 1019.5 1019.6 0.0
24/06:30am 7.1 4.7 5.3 88 0.8 NNW 7 9 4 5 1019.2 1019.3 0.0
24/06:00am 8.5 6.5 7.1 91 0.7 N 7 9 4 5 1019.0 1019.1 0.0
24/05:30am 7.9 5.4 6.4 90 0.7 NW 9 13 5 7 1018.7 1018.8 0.0
24/05:00am 7.6 5.3 5.7 88 0.9 NNW 7 9 4 5 1018.7 1018.8 0.0
24/04:30am 8.3 6.2 6.8 90 0.7 WNW 7 9 4 5 1018.6 1018.7 0.0
24/04:00am 8.3 5.0 6.6 89 0.8 NW 13 15 7 8 1018.6 1018.7 0.0
24/03:30am 8.5 6.4 6.5 87 0.9 NW 7 7 4 4 1018.3 1018.4 0.0
24/03:00am 9.1 6.7 6.9 86 1.0 NW 9 11 5 6 1018.4 1018.5 0.0
24/02:30am 9.8 7.9 6.9 82 1.4 NW 6 7 3 4 1018.5 1018.6 0.0
24/02:00am 12.2 10.3 9.2 82 1.5 W 9 11 5 6 1018.5 1018.6 0.0
24/01:30am 10.9 9.4 8.5 85 1.2 WNW 6 7 3 4 1018.6 1018.7 0.0
24/01:00am 10.8 9.1 8.4 85 1.2 NW 7 9 4 5 1018.5 1018.6 0.0
24/12:30am 10.1 7.9 7.9 86 1.1 NW 9 11 5 6 1018.6 1018.7 0.0
24/12:00am 8.7 6.5 6.2 84 1.1 NNW 7 9 4 5 1018.6 1018.7 0.0
 
Date/Time
CST
Temp
°C
App
Temp
°C
Dew
Point
°C
Rel
Hum
%
Delta-T
°C
Wind Press
QNH
hPa
Press
MSL
hPa
Rain since
9am
mm
Dir  Spd
km/h
Gust
km/h
Spd
kts
Gust
kts
23/11:30pm 9.4 7.4 7.0 85 1.1 NW 7 7 4 4 1018.5 1018.6 0.0

Other Formats:

Comma delimited format used in spreadsheet applications
http://www.bom.gov.au/fwo/IDS60801/IDS60801.94814.axf

JavaScript Object Notation format (JSON) in row-major order
http://www.bom.gov.au/fwo/IDS60801/IDS60801.94814.json